Time,TemperatureF,DewpointF,PressureIn,WindDirection,WindDirectionDegrees,WindSpeedMPH,WindSpeedGustMPH,Humidity,HourlyPrecipIn,Conditions,Clouds,dailyrainin,SoftwareType,DateUTC
2013-10-27 00:12:00,44.2,27.0,29.81,North,5,4.0,7.0,52,0.00,,,0.00,weatherlink.com 1.10,2013-10-27 04:12:00,
2013-10-27 00:27:00,44.0,28.0,29.81,WSW,253,2.0,15.0,53,0.00,,,0.00,weatherlink.com 1.10,2013-10-27 04:27:00,
2013-10-27 00:42:00,43.9,28.0,29.81,ENE,62,4.0,9.0,54,0.00,,,0.00,weatherlink.com 1.10,2013-10-27 04:42:00,
2013-10-27 00:57:00,43.6,28.0,29.81,NNW,346,2.0,8.0,55,0.00,,,0.00,weatherlink.com 1.10,2013-10-27 04:57:00,
2013-10-27 01:12:00,43.3,29.0,29.81,NNE,31,4.0,7.0,57,0.00,,,0.00,weatherlink.com 1.10,2013-10-27 05:12:00,
2013-10-27 01:27:00,43.1,29.0,29.81,NW,316,5.0,10.0,59,0.00,,,0.00,weatherlink.com 1.10,2013-10-27 05:27:00,
2013-10-27 01:42:00,42.4,30.0,29.80,NE,35,1.0,11.0,63,0.00,,,0.00,weatherlink.com 1.10,2013-10-27 05:42:00,
2013-10-27 01:57:00,42.0,31.0,29.80,North,5,5.0,10.0,65,0.00,,,0.00,weatherlink.com 1.10,2013-10-27 05:57:00,
2013-10-27 02:12:00,41.7,31.0,29.80,NE,51,3.0,8.0,67,0.00,,,0.00,weatherlink.com 1.10,2013-10-27 06:12:00,
2013-10-27 02:27:00,41.6,31.0,29.80,ENE,64,3.0,11.0,67,0.00,,,0.00,weatherlink.com 1.10,2013-10-27 06:27:00,
2013-10-27 02:42:00,41.4,32.0,29.80,SW,229,7.0,10.0,68,0.00,,,0.00,weatherlink.com 1.10,2013-10-27 06:42:00,
2013-10-27 02:57:00,41.9,31.0,29.79,West,278,13.0,17.0,66,0.00,,,0.00,weatherlink.com 1.10,2013-10-27 06:57:00,
2013-10-27 03:12:00,41.7,31.0,29.79,NW,317,3.0,15.0,66,0.00,,,0.00,weatherlink.com 1.10,2013-10-27 07:12:00,
2013-10-27 03:27:00,41.4,32.0,29.79,North,355,1.0,7.0,68,0.00,,,0.00,weatherlink.com 1.10,2013-10-27 07:27:00,
2013-10-27 03:42:00,41.1,31.0,29.78,NE,38,3.0,10.0,68,0.00,,,0.00,weatherlink.com 1.10,2013-10-27 07:42:00,
2013-10-27 03:57:00,40.8,31.0,29.78,NNE,32,1.0,5.0,68,0.00,,,0.00,weatherlink.com 1.10,2013-10-27 07:57:00,
2013-10-27 04:12:00,40.9,31.0,29.78,North,9,2.0,6.0,68,0.00,,,0.00,weatherlink.com 1.10,2013-10-27 08:12:00,
2013-10-27 04:27:00,40.9,31.0,29.79,NNE,26,0.0,4.0,68,0.00,,,0.00,weatherlink.com 1.10,2013-10-27 08:27:00,
2013-10-27 04:42:00,41.1,31.0,29.79,NW,317,2.0,11.0,68,0.00,,,0.00,weatherlink.com 1.10,2013-10-27 08:42:00,
2013-10-27 04:57:00,41.1,32.0,29.79,West,265,5.0,15.0,69,0.00,,,0.00,weatherlink.com 1.10,2013-10-27 08:57:00,
2013-10-27 05:12:00,40.6,32.0,29.79,NNW,328,9.0,14.0,72,0.00,,,0.00,weatherlink.com 1.10,2013-10-27 09:12:00,
2013-10-27 05:28:00,40.3,32.0,29.79,NNW,331,6.0,14.0,73,0.00,,,0.00,weatherlink.com 1.10,2013-10-27 09:28:00,
2013-10-27 05:43:00,40.2,33.0,29.80,South,172,4.0,15.0,74,0.00,,,0.00,weatherlink.com 1.10,2013-10-27 09:43:00,
2013-10-27 05:58:00,40.0,32.0,29.80,NNE,19,5.0,12.0,74,0.00,,,0.00,weatherlink.com 1.10,2013-10-27 09:58:00,
2013-10-27 06:13:00,40.2,32.0,29.81,WNW,298,8.0,15.0,73,0.00,,,0.00,weatherlink.com 1.10,2013-10-27 10:13:00,
2013-10-27 06:28:00,40.5,32.0,29.81,NNW,346,4.0,14.0,71,0.00,,,0.00,weatherlink.com 1.10,2013-10-27 10:28:00,
2013-10-27 06:43:00,40.4,32.0,29.81,NE,44,2.0,11.0,71,0.00,,,0.00,weatherlink.com 1.10,2013-10-27 10:43:00,
2013-10-27 06:58:00,40.5,31.0,29.82,North,355,11.0,13.0,70,0.00,,,0.00,weatherlink.com 1.10,2013-10-27 10:58:00,
2013-10-27 07:13:00,40.7,31.0,29.82,NNW,331,2.0,14.0,69,0.00,,,0.00,weatherlink.com 1.10,2013-10-27 11:13:00,
2013-10-27 07:28:00,40.7,31.0,29.83,NW,322,6.0,17.0,69,0.00,,,0.00,weatherlink.com 1.10,2013-10-27 11:28:00,
2013-10-27 07:43:00,40.6,32.0,29.83,WNW,296,4.0,11.0,70,0.00,,,0.00,weatherlink.com 1.10,2013-10-27 11:43:00,
2013-10-27 07:58:00,40.7,32.0,29.83,NNW,329,5.0,13.0,70,0.00,,,0.00,weatherlink.com 1.10,2013-10-27 11:58:00,
2013-10-27 08:13:00,40.7,31.0,29.84,NW,306,5.0,13.0,69,0.00,,,0.00,weatherlink.com 1.10,2013-10-27 12:13:00,
2013-10-27 08:28:00,41.4,31.0,29.85,NW,323,9.0,17.0,66,0.00,,,0.00,weatherlink.com 1.10,2013-10-27 12:28:00,
2013-10-27 08:43:00,41.6,31.0,29.86,North,349,7.0,14.0,66,0.00,,,0.00,weatherlink.com 1.10,2013-10-27 12:43:00,
2013-10-27 08:58:00,41.6,31.0,29.86,North,349,4.0,16.0,65,0.00,,,0.00,weatherlink.com 1.10,2013-10-27 12:58:00,
2013-10-27 09:13:00,42.2,31.0,29.87,WNW,282,4.0,15.0,64,0.00,,,0.00,weatherlink.com 1.10,2013-10-27 13:13:00,
2013-10-27 09:28:00,42.5,31.0,29.88,WNW,284,4.0,12.0,64,0.00,,,0.00,weatherlink.com 1.10,2013-10-27 13:28:00,
2013-10-27 09:43:00,42.4,30.0,29.87,West,263,4.0,18.0,63,0.00,,,0.00,weatherlink.com 1.10,2013-10-27 13:43:00,
2013-10-27 09:58:00,42.8,30.0,29.88,South,171,5.0,17.0,62,0.00,,,0.00,weatherlink.com 1.10,2013-10-27 13:58:00,
2013-10-27 10:13:00,43.2,31.0,29.89,WNW,286,10.0,11.0,62,0.00,,,0.00,weatherlink.com 1.10,2013-10-27 14:13:00,
2013-10-27 10:28:00,43.6,30.0,29.88,WNW,296,7.0,14.0,60,0.00,,,0.00,weatherlink.com 1.10,2013-10-27 14:28:00,
2013-10-27 10:43:00,44.7,31.0,29.89,North,349,5.0,15.0,58,0.00,,,0.00,weatherlink.com 1.10,2013-10-27 14:43:00,
2013-10-27 10:58:00,45.2,30.0,29.90,NNW,327,3.0,14.0,55,0.00,,,0.00,weatherlink.com 1.10,2013-10-27 14:58:00,
2013-10-27 11:13:00,44.7,30.0,29.90,NW,321,5.0,17.0,56,0.00,,,0.00,weatherlink.com 1.10,2013-10-27 15:13:00,
2013-10-27 11:28:00,44.2,29.0,29.91,NNW,342,8.0,18.0,55,0.00,,,0.00,weatherlink.com 1.10,2013-10-27 15:28:00,
2013-10-27 11:43:00,44.8,29.0,29.90,SSW,213,4.0,14.0,55,0.00,,,0.00,weatherlink.com 1.10,2013-10-27 15:43:00,
2013-10-27 11:58:00,44.8,29.0,29.90,WNW,284,5.0,13.0,54,0.00,,,0.00,weatherlink.com 1.10,2013-10-27 15:58:00,
2013-10-27 12:13:00,44.7,29.0,29.90,NW,325,11.0,13.0,55,0.00,,,0.00,weatherlink.com 1.10,2013-10-27 16:13:00,
2013-10-27 12:28:00,44.6,29.0,29.91,NNE,32,4.0,17.0,54,0.00,,,0.00,weatherlink.com 1.10,2013-10-27 16:28:00,
2013-10-27 12:43:00,44.4,29.0,29.90,North,5,6.0,15.0,54,0.00,,,0.00,weatherlink.com 1.10,2013-10-27 16:43:00,
2013-10-27 12:58:00,45.0,29.0,29.90,North,349,9.0,16.0,53,0.00,,,0.00,weatherlink.com 1.10,2013-10-27 16:58:00,
2013-10-27 13:13:00,44.7,28.0,29.90,NNE,17,7.0,15.0,53,0.00,,,0.00,weatherlink.com 1.10,2013-10-27 17:13:00,
2013-10-27 13:28:00,45.3,28.0,29.90,NNW,344,4.0,13.0,52,0.00,,,0.00,weatherlink.com 1.10,2013-10-27 17:28:00,
2013-10-27 13:43:00,45.0,28.0,29.89,NW,311,3.0,12.0,52,0.00,,,0.00,weatherlink.com 1.10,2013-10-27 17:43:00,
2013-10-27 13:58:00,45.3,27.0,29.90,NW,306,4.0,13.0,50,0.00,,,0.00,weatherlink.com 1.10,2013-10-27 17:58:00,
2013-10-27 14:13:00,45.2,27.0,29.90,WNW,297,6.0,14.0,50,0.00,,,0.00,weatherlink.com 1.10,2013-10-27 18:13:00,
2013-10-27 14:28:00,45.4,27.0,29.90,NW,304,2.0,16.0,49,0.00,,,0.00,weatherlink.com 1.10,2013-10-27 18:28:00,
2013-10-27 14:43:00,45.2,28.0,29.90,SSE,156,1.0,13.0,51,0.00,,,0.00,weatherlink.com 1.10,2013-10-27 18:43:00,
2013-10-27 14:58:00,45.4,28.0,29.90,NW,309,4.0,12.0,50,0.00,,,0.00,weatherlink.com 1.10,2013-10-27 18:58:00,
2013-10-27 15:13:00,45.3,28.0,29.91,WNW,299,4.0,14.0,51,0.00,,,0.00,weatherlink.com 1.10,2013-10-27 19:13:00,
2013-10-27 15:28:00,45.3,27.0,29.91,NNW,333,6.0,11.0,50,0.00,,,0.00,weatherlink.com 1.10,2013-10-27 19:28:00,
2013-10-27 15:43:00,45.3,27.0,29.91,West,269,7.0,14.0,50,0.00,,,0.00,weatherlink.com 1.10,2013-10-27 19:43:00,
2013-10-27 15:58:00,45.3,27.0,29.91,West,277,6.0,12.0,50,0.00,,,0.00,weatherlink.com 1.10,2013-10-27 19:58:00,
2013-10-27 16:13:00,45.4,28.0,29.92,SSE,163,1.0,9.0,51,0.00,,,0.00,weatherlink.com 1.10,2013-10-27 20:13:00,
2013-10-27 16:28:00,45.6,27.0,29.92,WNW,290,10.0,12.0,49,0.00,,,0.00,weatherlink.com 1.10,2013-10-27 20:28:00,
2013-10-27 16:43:00,45.3,27.0,29.93,NNE,18,9.0,11.0,49,0.00,,,0.00,weatherlink.com 1.10,2013-10-27 20:43:00,
2013-10-27 16:59:00,45.0,27.0,29.93,West,281,4.0,11.0,50,0.00,,,0.00,weatherlink.com 1.10,2013-10-27 20:59:00,
2013-10-27 17:14:00,44.9,28.0,29.93,WNW,286,4.0,11.0,51,0.00,,,0.00,weatherlink.com 1.10,2013-10-27 21:14:00,
2013-10-27 17:29:00,44.3,27.0,29.94,NNW,329,9.0,13.0,51,0.00,,,0.00,weatherlink.com 1.10,2013-10-27 21:29:00,
2013-10-27 17:44:00,43.9,28.0,29.95,North,355,6.0,11.0,53,0.00,,,0.00,weatherlink.com 1.10,2013-10-27 21:44:00,
2013-10-27 18:14:00,43.1,28.0,29.96,North,5,2.0,8.0,55,0.00,,,0.00,weatherlink.com 1.10,2013-10-27 22:14:00,
2013-10-27 18:29:00,43.0,28.0,29.96,West,273,1.0,9.0,56,0.00,,,0.00,weatherlink.com 1.10,2013-10-27 22:29:00,
2013-10-27 18:44:00,42.9,28.0,29.97,North,355,3.0,8.0,56,0.00,,,0.00,weatherlink.com 1.10,2013-10-27 22:44:00,
2013-10-27 18:59:00,42.6,28.0,29.97,ENE,62,0.0,6.0,57,0.00,,,0.00,weatherlink.com 1.10,2013-10-27 22:59:00,
2013-10-27 19:14:00,42.2,28.0,29.98,North,355,1.0,3.0,58,0.00,,,0.00,weatherlink.com 1.10,2013-10-27 23:14:00,
2013-10-27 19:29:00,42.0,29.0,29.99,North,355,0.0,2.0,60,0.00,,,0.00,weatherlink.com 1.10,2013-10-27 23:29:00,
2013-10-27 19:44:00,41.5,29.0,30.00,North,355,0.0,0.0,61,0.00,,,0.00,weatherlink.com 1.10,2013-10-27 23:44:00,
2013-10-27 19:59:00,40.6,30.0,30.00,North,355,0.0,0.0,65,0.00,,,0.00,weatherlink.com 1.10,2013-10-27 23:59:00,
2013-10-27 20:14:00,39.4,30.0,30.01,North,355,0.0,2.0,68,0.00,,,0.00,weatherlink.com 1.10,2013-10-28 00:14:00,
2013-10-27 20:29:00,38.1,29.0,30.01,North,355,0.0,0.0,70,0.00,,,0.00,weatherlink.com 1.10,2013-10-28 00:29:00,
2013-10-27 20:44:00,36.8,29.0,30.01,North,355,0.0,1.0,72,0.00,,,0.00,weatherlink.com 1.10,2013-10-28 00:44:00,
2013-10-27 20:59:00,35.8,28.0,30.02,North,355,0.0,1.0,74,0.00,,,0.00,weatherlink.com 1.10,2013-10-28 00:59:00,
2013-10-27 21:14:00,35.1,28.0,30.02,North,355,0.0,1.0,76,0.00,,,0.00,weatherlink.com 1.10,2013-10-28 01:14:00,
2013-10-27 21:29:00,34.2,28.0,30.03,North,355,1.0,1.0,79,0.00,,,0.00,weatherlink.com 1.10,2013-10-28 01:29:00,
2013-10-27 21:44:00,33.5,28.0,30.03,North,355,0.0,2.0,80,0.00,,,0.00,weatherlink.com 1.10,2013-10-28 01:44:00,
2013-10-27 21:59:00,32.9,28.0,30.03,North,355,0.0,2.0,81,0.00,,,0.00,weatherlink.com 1.10,2013-10-28 01:59:00,
2013-10-27 22:14:00,32.5,28.0,30.04,NE,41,0.0,2.0,83,0.00,,,0.00,weatherlink.com 1.10,2013-10-28 02:14:00,
2013-10-27 22:29:00,32.3,28.0,30.05,NE,41,0.0,2.0,84,0.00,,,0.00,weatherlink.com 1.10,2013-10-28 02:29:00,
2013-10-27 22:44:00,32.3,28.0,30.05,ENE,75,2.0,3.0,84,0.00,,,0.00,weatherlink.com 1.10,2013-10-28 02:44:00,
2013-10-27 22:59:00,32.2,28.0,30.06,ENE,59,0.0,2.0,85,0.00,,,0.00,weatherlink.com 1.10,2013-10-28 02:59:00,
2013-10-27 23:15:00,32.4,28.0,30.06,East,90,3.0,3.0,85,0.00,,,0.00,weatherlink.com 1.10,2013-10-28 03:15:00,
2013-10-27 23:30:00,32.6,29.0,30.06,East,94,0.0,0.0,85,0.00,,,0.00,weatherlink.com 1.10,2013-10-28 03:30:00,
2013-10-27 23:45:00,32.7,28.0,30.06,East,94,0.0,0.0,84,0.00,,,0.00,weatherlink.com 1.10,2013-10-28 03:45:00,